createdAt,value
2018-07-27T00:01:16.404Z,20.50
2018-07-27T00:08:41.156Z,19.10
2018-07-27T00:11:09.725Z,20.50
2018-07-27T00:13:38.261Z,20.40
2018-07-27T00:16:06.850Z,20.90
2018-07-27T00:18:41.829Z,20.90
2018-07-27T00:21:10.285Z,20.80
2018-07-27T00:23:38.901Z,20.30
2018-07-27T00:26:07.455Z,20.70
2018-07-27T00:28:35.993Z,20.30
2018-07-27T00:31:04.486Z,20.50
2018-07-27T00:33:32.943Z,20.50
2018-07-27T00:36:01.507Z,20.50
2018-07-27T00:43:26.244Z,20.10
2018-07-27T00:45:54.681Z,20.00
2018-07-27T00:53:19.519Z,20.00
2018-07-27T00:55:47.973Z,20.30
2018-07-27T00:58:16.406Z,19.70
2018-07-27T01:00:44.909Z,19.90
2018-07-27T01:03:13.402Z,19.90
2018-07-27T01:05:41.818Z,19.80
2018-07-27T01:08:10.285Z,19.70
2018-07-27T01:10:38.858Z,19.60
2018-07-27T01:13:07.374Z,19.90
2018-07-27T01:15:35.820Z,19.60
2018-07-27T01:18:04.402Z,19.30
2018-07-27T01:20:32.906Z,19.50
2018-07-27T01:27:57.727Z,19.30
2018-07-27T01:30:26.222Z,19.10
2018-07-27T01:32:54.682Z,19.40
2018-07-27T01:35:23.164Z,19.10
2018-07-27T01:37:51.618Z,19.10
2018-07-27T01:40:20.120Z,18.70
2018-07-27T01:42:48.624Z,19.10
2018-07-27T01:45:17.111Z,18.80
2018-07-27T01:52:41.885Z,18.80
2018-07-27T01:55:10.396Z,18.60
2018-07-27T01:57:38.892Z,18.70
2018-07-27T02:00:07.464Z,18.50
2018-07-27T02:02:35.970Z,18.80
2018-07-27T02:07:33.018Z,18.90
2018-07-27T02:10:01.494Z,18.90
2018-07-27T02:12:30.046Z,18.70
2018-07-27T02:14:58.593Z,18.90
2018-07-27T02:17:27.028Z,18.50
2018-07-27T02:19:55.488Z,18.80
2018-07-27T02:22:23.966Z,18.70
2018-07-27T02:24:52.492Z,18.70
2018-07-27T02:27:20.901Z,18.50
2018-07-27T02:29:49.408Z,18.80
2018-07-27T02:32:17.911Z,18.50
2018-07-27T02:34:46.335Z,18.50
2018-07-27T02:37:14.842Z,18.40
2018-07-27T02:39:43.329Z,18.80
2018-07-27T02:44:40.017Z,18.90
2018-07-27T02:49:43.220Z,18.50
2018-07-27T02:54:39.921Z,18.20
2018-07-27T02:57:08.391Z,18.30
2018-07-27T02:59:36.826Z,18.20
2018-07-27T03:02:05.322Z,18.10
2018-07-27T03:04:33.813Z,18.20
2018-07-27T03:07:02.283Z,18.20
2018-07-27T03:09:30.737Z,18.50
2018-07-27T03:11:59.221Z,18.10
2018-07-27T03:14:27.773Z,18.20
2018-07-27T03:16:56.221Z,18.10
2018-07-27T03:19:24.801Z,18.40
2018-07-27T03:21:53.290Z,18.50
2018-07-27T03:24:21.800Z,18.20
2018-07-27T03:26:50.317Z,18.10
2018-07-27T03:29:18.767Z,17.90
2018-07-27T03:31:47.397Z,17.90
2018-07-27T03:34:15.778Z,17.90
2018-07-27T03:36:44.271Z,18.20
2018-07-27T03:39:12.710Z,18.10
2018-07-27T03:46:37.601Z,18.00
2018-07-27T03:49:06.099Z,17.80
2018-07-27T03:51:34.721Z,17.70
2018-07-27T03:54:03.374Z,17.80
2018-07-27T03:59:00.473Z,17.30
2018-07-27T04:01:28.999Z,17.80
2018-07-27T04:03:57.557Z,17.60
2018-07-27T04:08:54.391Z,17.30
2018-07-27T04:13:51.317Z,18.00
2018-07-27T04:18:48.040Z,17.90
2018-07-27T04:21:16.572Z,17.90
2018-07-27T04:23:45.053Z,18.00
2018-07-27T04:28:42.282Z,17.80
2018-07-27T04:31:10.872Z,17.90
2018-07-27T04:33:39.335Z,17.90
2018-07-27T04:36:08.300Z,17.90
2018-07-27T04:38:36.986Z,18.00
2018-07-27T04:48:29.874Z,18.10
2018-07-27T04:50:58.358Z,18.10
2018-07-27T04:53:26.873Z,18.30
2018-07-27T04:55:55.464Z,18.30
2018-07-27T04:58:23.940Z,18.20
2018-07-27T05:03:20.644Z,18.20
2018-07-27T05:05:49.121Z,18.20
2018-07-27T05:08:18.108Z,18.20
2018-07-27T05:15:44.599Z,18.30
2018-07-27T05:18:13.089Z,18.30
2018-07-27T05:23:09.724Z,18.30
2018-07-27T05:25:38.184Z,18.30
2018-07-27T05:28:06.786Z,18.30
2018-07-27T05:30:35.233Z,18.40
2018-07-27T05:33:03.754Z,18.20
2018-07-27T05:35:32.211Z,18.50
2018-07-27T05:38:00.709Z,18.40
2018-07-27T05:40:29.328Z,18.50
2018-07-27T05:42:57.838Z,18.40
2018-07-27T05:45:26.393Z,18.70
2018-07-27T05:47:54.934Z,18.80
2018-07-27T05:50:23.440Z,19.00
2018-07-27T05:52:52.125Z,18.90
2018-07-27T05:55:20.577Z,18.90
2018-07-27T05:57:49.123Z,19.00
2018-07-27T06:00:17.590Z,19.30
2018-07-27T06:02:46.338Z,19.20
2018-07-27T06:05:14.872Z,19.30
2018-07-27T06:10:11.644Z,19.50
2018-07-27T06:15:08.512Z,19.70
2018-07-27T06:20:07.090Z,20.00
2018-07-27T06:22:35.942Z,20.30
2018-07-27T06:25:04.527Z,20.50
2018-07-27T06:27:32.969Z,20.80
2018-07-27T06:30:01.565Z,20.90
2018-07-27T06:32:30.396Z,21.30
2018-07-27T06:34:59.090Z,21.60
2018-07-27T06:37:27.645Z,21.80
2018-07-27T06:39:56.240Z,22.20
2018-07-27T06:42:24.720Z,21.90
2018-07-27T06:44:53.767Z,21.70
2018-07-27T06:49:50.423Z,22.30
2018-07-27T06:52:19.683Z,22.50
2018-07-27T06:57:16.591Z,23.10
2018-07-27T07:02:17.528Z,23.50
2018-07-27T07:04:47.932Z,23.70
2018-07-27T07:07:20.640Z,23.70
2018-07-27T07:09:50.261Z,23.50
2018-07-27T07:12:19.292Z,23.80
2018-07-27T07:14:49.213Z,24.20
2018-07-27T07:19:48.214Z,24.00
2018-07-27T07:22:17.105Z,23.80
2018-07-27T07:24:46.330Z,23.80
2018-07-27T07:27:15.214Z,24.20
2018-07-27T07:29:44.151Z,24.40
2018-07-27T07:32:13.263Z,24.60
2018-07-27T07:34:42.074Z,24.80
2018-07-27T07:37:11.566Z,24.70
2018-07-27T07:39:40.448Z,25.20
2018-07-27T07:47:05.517Z,24.90
2018-07-27T07:49:34.217Z,25.50
2018-07-27T07:54:30.987Z,28.70
2018-07-27T07:56:59.475Z,25.00
2018-07-27T08:04:24.315Z,25.80
2018-07-27T08:06:52.705Z,26.00
2018-07-27T08:09:21.137Z,26.40
2018-07-27T08:11:50.538Z,26.10
2018-07-27T08:14:19.012Z,26.30
2018-07-27T08:16:47.781Z,26.70
2018-07-27T08:19:16.430Z,26.70
2018-07-27T08:21:44.973Z,27.30
2018-07-27T08:24:13.424Z,27.70
2018-07-27T08:29:42.286Z,27.50
2018-07-27T08:32:10.879Z,27.50
2018-07-27T08:34:39.356Z,27.60
2018-07-27T08:39:37.339Z,28.40
2018-07-27T08:42:05.962Z,28.90
2018-07-27T08:44:35.814Z,29.00
2018-07-27T08:47:04.346Z,28.90
2018-07-27T08:49:32.902Z,29.50
2018-07-27T08:52:01.518Z,29.20
2018-07-27T08:54:30.269Z,28.90
2018-07-27T09:01:55.097Z,29.40
2018-07-27T09:06:51.745Z,29.50
2018-07-27T09:09:20.269Z,29.80
2018-07-27T09:11:48.883Z,30.20
2018-07-27T09:14:17.418Z,30.40
2018-07-27T09:16:45.986Z,29.30
2018-07-27T09:19:14.515Z,29.50
2018-07-27T09:21:43.084Z,29.50
2018-07-27T09:24:11.660Z,29.80
2018-07-27T09:26:40.093Z,29.80
2018-07-27T09:29:08.601Z,30.40
2018-07-27T09:31:37.071Z,30.80
2018-07-27T09:34:05.594Z,30.50
2018-07-27T09:36:34.142Z,31.00
2018-07-27T09:39:02.653Z,30.90
2018-07-27T09:41:31.227Z,31.40
2018-07-27T09:43:59.734Z,31.30
2018-07-27T09:48:56.427Z,31.70
2018-07-27T09:51:25.300Z,32.00
2018-07-27T09:53:53.848Z,32.00
2018-07-27T09:56:22.283Z,32.20
2018-07-27T10:01:21.802Z,32.00
2018-07-27T10:06:18.889Z,32.30
2018-07-27T10:08:47.389Z,32.50
2018-07-27T10:11:15.859Z,32.60
2018-07-27T10:13:44.303Z,33.00
2018-07-27T10:16:12.707Z,33.10
2018-07-27T10:18:41.162Z,33.00
2018-07-27T10:21:09.807Z,32.70
2018-07-27T10:23:38.243Z,32.60
2018-07-27T10:26:07.015Z,32.60
2018-07-27T10:28:35.705Z,32.60
2018-07-27T10:33:32.870Z,33.10
2018-07-27T10:36:01.437Z,32.60
2018-07-27T10:38:30.558Z,33.00
2018-07-27T10:40:59.090Z,33.20
2018-07-27T10:43:28.497Z,33.20
2018-07-27T10:45:56.949Z,33.30
2018-07-27T10:48:25.368Z,33.10
2018-07-27T10:50:53.974Z,33.50
2018-07-27T10:53:22.937Z,33.60
2018-07-27T10:55:51.372Z,33.50
2018-07-27T10:58:19.921Z,33.70
2018-07-27T11:00:48.393Z,34.10
2018-07-27T11:03:17.008Z,33.60
2018-07-27T11:05:45.555Z,33.40
2018-07-27T11:08:14.084Z,33.30
2018-07-27T11:15:39.407Z,34.20
2018-07-27T11:18:07.978Z,34.20
2018-07-27T11:20:36.441Z,34.10
2018-07-27T11:23:05.474Z,34.00
2018-07-27T11:25:34.040Z,34.00
2018-07-27T11:28:02.632Z,34.30
2018-07-27T11:30:31.176Z,34.00
2018-07-27T11:33:00.469Z,34.10
2018-07-27T11:35:29.000Z,33.60
2018-07-27T11:37:57.523Z,34.00
2018-07-27T11:40:25.981Z,33.70
2018-07-27T11:42:54.463Z,33.70
2018-07-27T11:45:22.983Z,33.50
2018-07-27T11:47:51.541Z,32.00
2018-07-27T11:50:20.270Z,31.50
2018-07-27T11:52:49.749Z,31.20
2018-07-27T11:55:18.197Z,31.20
2018-07-27T11:57:47.718Z,31.60
2018-07-27T12:02:44.394Z,31.70
2018-07-27T12:07:40.971Z,32.00
2018-07-27T12:10:09.418Z,32.40
2018-07-27T12:12:37.981Z,32.00
2018-07-27T12:15:06.701Z,32.40
2018-07-27T12:17:35.550Z,32.30
2018-07-27T12:22:32.262Z,32.10
2018-07-27T12:25:00.692Z,32.20
2018-07-27T12:27:29.131Z,32.30
2018-07-27T12:29:57.600Z,32.00
2018-07-27T12:32:26.165Z,31.70
2018-07-27T12:34:54.894Z,31.70
2018-07-27T12:37:23.924Z,31.50
2018-07-27T12:39:52.323Z,31.10
2018-07-27T12:42:20.847Z,30.80
2018-07-27T12:44:49.398Z,31.00
2018-07-27T12:47:17.870Z,31.50
2018-07-27T12:49:46.321Z,31.80
2018-07-27T12:52:14.776Z,31.90
2018-07-27T12:54:43.235Z,31.70
2018-07-27T12:57:11.698Z,31.50
2018-07-27T12:59:40.112Z,31.30
2018-07-27T13:04:36.777Z,30.50
2018-07-27T13:07:05.410Z,30.30
2018-07-27T13:14:30.851Z,29.80
2018-07-27T13:16:59.271Z,29.80
2018-07-27T13:19:27.727Z,30.10
2018-07-27T13:21:56.265Z,30.10
2018-07-27T13:26:54.411Z,30.10
2018-07-27T13:29:24.012Z,30.20
2018-07-27T13:31:54.408Z,30.10
2018-07-27T13:34:32.658Z,29.90
2018-07-27T13:37:01.607Z,29.70
2018-07-27T13:39:31.341Z,29.60
2018-07-27T13:42:01.918Z,29.70
2018-07-27T13:44:32.124Z,29.50
2018-07-27T13:47:01.470Z,29.60
2018-07-27T13:49:30.389Z,29.60
2018-07-27T13:52:02.176Z,29.70
2018-07-27T13:54:31.854Z,29.60
2018-07-27T13:57:00.791Z,29.70
2018-07-27T13:59:29.502Z,29.50
2018-07-27T14:06:57.050Z,29.40
2018-07-27T14:09:25.534Z,29.50
2018-07-27T14:11:53.935Z,29.60
2018-07-27T14:14:22.626Z,29.20
2018-07-27T14:16:53.324Z,29.40
2018-07-27T14:19:25.266Z,29.30
2018-07-27T14:24:21.958Z,29.20
2018-07-27T14:26:50.398Z,29.10
2018-07-27T14:29:19.103Z,29.10
2018-07-27T14:31:47.542Z,29.30
2018-07-27T14:34:16.073Z,29.10
2018-07-27T14:36:44.515Z,29.40
2018-07-27T14:41:43.531Z,29.30
2018-07-27T14:44:12.221Z,29.40
2018-07-27T14:46:40.815Z,29.40
2018-07-27T14:49:14.636Z,29.40
2018-07-27T14:51:43.500Z,29.20
2018-07-27T14:54:13.076Z,29.20
2018-07-27T14:56:42.051Z,29.30
2018-07-27T15:01:39.900Z,29.70
2018-07-27T15:04:09.179Z,29.50
2018-07-27T15:06:37.644Z,29.60
2018-07-27T15:09:09.189Z,29.50
2018-07-27T15:11:38.549Z,29.60
2018-07-27T15:14:07.117Z,29.50
2018-07-27T15:16:35.660Z,29.50
2018-07-27T15:19:04.141Z,29.30
2018-07-27T15:21:32.700Z,29.30
2018-07-27T15:24:01.232Z,29.20
2018-07-27T15:26:29.839Z,29.20
2018-07-27T15:28:58.366Z,29.10
2018-07-27T15:31:26.861Z,29.20
2018-07-27T15:36:23.597Z,29.20
2018-07-27T15:38:52.076Z,29.10
2018-07-27T15:41:20.592Z,29.10
2018-07-27T15:43:49.056Z,29.10
2018-07-27T15:46:17.545Z,29.20
2018-07-27T15:48:46.031Z,29.20
2018-07-27T15:56:10.852Z,29.10
2018-07-27T15:58:39.333Z,29.10
2018-07-27T16:01:07.778Z,29.10
2018-07-27T16:06:04.428Z,29.00
2018-07-27T16:08:32.903Z,29.00
2018-07-27T16:11:01.406Z,29.00
2018-07-27T16:13:29.996Z,28.90
2018-07-27T16:18:26.588Z,28.90
2018-07-27T16:23:23.329Z,29.00
2018-07-27T16:25:51.793Z,28.90
2018-07-27T16:28:20.268Z,28.80
2018-07-27T16:35:45.200Z,28.80
2018-07-27T16:38:13.637Z,28.80
2018-07-27T16:40:42.127Z,28.80
2018-07-27T16:43:13.243Z,28.70
2018-07-27T16:45:41.691Z,28.60
2018-07-27T16:48:10.209Z,28.40
2018-07-27T16:50:38.749Z,28.70
2018-07-27T16:55:35.405Z,28.70
2018-07-27T16:58:03.879Z,28.60
2018-07-27T17:00:32.724Z,28.30
2018-07-27T17:03:01.235Z,28.30
2018-07-27T17:05:30.246Z,28.30
2018-07-27T17:10:27.240Z,28.20
2018-07-27T17:12:55.691Z,28.20
2018-07-27T17:15:24.206Z,28.10
2018-07-27T17:17:52.638Z,28.10
2018-07-27T17:20:21.182Z,28.20
2018-07-27T17:22:49.745Z,27.90
2018-07-27T17:25:18.622Z,27.80
2018-07-27T17:27:47.227Z,27.90
2018-07-27T17:30:16.025Z,27.80
2018-07-27T17:32:44.534Z,27.80
2018-07-27T17:35:13.032Z,27.70
2018-07-27T17:40:10.066Z,27.60
2018-07-27T17:42:38.631Z,27.60
2018-07-27T17:45:08.588Z,27.50
2018-07-27T17:47:37.398Z,27.40
2018-07-27T17:50:06.156Z,27.40
2018-07-27T17:52:34.633Z,27.40
2018-07-27T17:55:03.142Z,27.20
2018-07-27T18:02:28.019Z,27.10
2018-07-27T18:04:56.462Z,26.90
2018-07-27T18:07:25.040Z,26.90
2018-07-27T18:09:53.968Z,26.70
2018-07-27T18:12:22.418Z,26.70
2018-07-27T18:14:50.900Z,26.50
2018-07-27T18:17:19.620Z,26.00
2018-07-27T18:19:48.267Z,26.10
2018-07-27T18:22:16.767Z,26.10
2018-07-27T18:24:45.332Z,25.90
2018-07-27T18:27:13.798Z,26.10
2018-07-27T18:29:42.280Z,25.60
2018-07-27T18:34:39.027Z,25.10
2018-07-27T18:37:07.490Z,25.40
2018-07-27T18:39:36.086Z,25.50
2018-07-27T18:44:32.965Z,25.30
2018-07-27T18:47:01.516Z,25.10
2018-07-27T18:56:55.695Z,24.70
2018-07-27T19:04:20.515Z,24.20
2018-07-27T19:06:49.126Z,24.40
2018-07-27T19:09:17.566Z,24.50
2018-07-27T19:11:46.008Z,24.30
2018-07-27T19:14:14.523Z,24.40
2018-07-27T19:19:11.203Z,23.80
2018-07-27T19:21:39.704Z,23.50
2018-07-27T19:26:36.876Z,23.60
2018-07-27T19:29:05.540Z,23.00
2018-07-27T19:31:34.156Z,23.60
2018-07-27T19:36:32.360Z,23.40
2018-07-27T19:41:30.285Z,22.80
2018-07-27T19:43:58.776Z,22.30
2018-07-27T19:46:27.310Z,22.70
2018-07-27T19:48:55.932Z,22.40
2018-07-27T19:51:24.396Z,22.70
2018-07-27T19:53:52.862Z,22.20
2018-07-27T19:58:50.709Z,22.00
2018-07-27T20:01:19.264Z,21.80
2018-07-27T20:03:47.830Z,22.00
2018-07-27T20:06:16.582Z,22.40
2018-07-27T20:11:13.941Z,21.90
2018-07-27T20:16:11.206Z,21.80
2018-07-27T20:18:39.782Z,21.80
2018-07-27T20:21:08.303Z,21.80
2018-07-27T20:23:37.024Z,21.50
2018-07-27T20:26:05.499Z,21.40
2018-07-27T20:28:33.915Z,21.60
2018-07-27T20:40:55.891Z,21.30
2018-07-27T20:43:24.969Z,21.20
2018-07-27T20:45:53.547Z,21.10
2018-07-27T20:50:51.176Z,21.30
2018-07-27T20:55:52.916Z,20.90
2018-07-27T20:58:22.204Z,21.10
2018-07-27T21:03:45.515Z,21.00
2018-07-27T21:06:23.004Z,20.90
2018-07-27T21:08:51.813Z,20.80
2018-07-27T21:11:20.367Z,20.50
2018-07-27T21:13:49.301Z,20.40
2018-07-27T21:16:18.371Z,20.40
2018-07-27T21:18:46.965Z,20.20
2018-07-27T21:21:38.617Z,20.50
2018-07-27T21:24:15.385Z,20.00
2018-07-27T21:26:45.260Z,20.30
2018-07-27T21:29:24.295Z,20.30
2018-07-27T21:32:00.635Z,20.20
2018-07-27T21:34:41.727Z,20.00
2018-07-27T21:37:11.618Z,20.30
2018-07-27T21:39:40.310Z,20.00
2018-07-27T21:42:11.093Z,20.00
2018-07-27T21:47:11.797Z,19.60
2018-07-27T21:49:40.704Z,19.50
2018-07-27T21:52:09.825Z,19.70
2018-07-27T21:54:38.331Z,19.80
2018-07-27T22:02:03.854Z,19.70
2018-07-27T22:04:32.388Z,19.90
2018-07-27T22:07:01.088Z,19.60
2018-07-27T22:09:29.733Z,19.80
2018-07-27T22:11:58.584Z,19.70
2018-07-27T22:14:28.245Z,19.60
2018-07-27T22:16:58.405Z,19.80
2018-07-27T22:19:26.964Z,19.60
2018-07-27T22:21:56.301Z,19.50
2018-07-27T22:24:26.087Z,19.20
2018-07-27T22:26:55.229Z,19.50
2018-07-27T22:32:15.298Z,19.20
2018-07-27T22:34:44.157Z,20.00
2018-07-27T22:37:14.506Z,19.10
2018-07-27T22:39:43.318Z,19.30
2018-07-27T22:42:12.431Z,19.20
2018-07-27T22:44:41.202Z,19.10
2018-07-27T22:49:37.815Z,19.00
2018-07-27T22:52:06.405Z,19.00
2018-07-27T22:54:34.967Z,19.20
2018-07-27T22:57:03.462Z,19.30
2018-07-27T22:59:31.969Z,19.20
2018-07-27T23:02:00.665Z,18.60
2018-07-27T23:04:31.114Z,18.80
2018-07-27T23:06:59.700Z,18.70
2018-07-27T23:09:29.222Z,18.70
2018-07-27T23:11:58.550Z,18.80
2018-07-27T23:16:57.656Z,19.00
2018-07-27T23:19:26.169Z,18.90
2018-07-27T23:21:54.673Z,18.50
2018-07-27T23:24:23.160Z,18.90
2018-07-27T23:26:51.686Z,18.60
2018-07-27T23:29:20.356Z,18.40
2018-07-27T23:31:48.798Z,18.40
2018-07-27T23:34:17.335Z,18.00
2018-07-27T23:36:45.890Z,18.60
2018-07-27T23:39:14.880Z,18.20
2018-07-27T23:41:43.759Z,18.50
2018-07-27T23:44:12.298Z,18.50
2018-07-27T23:46:40.833Z,18.40
2018-07-27T23:49:09.560Z,18.30
2018-07-27T23:51:38.113Z,18.60
2018-07-27T23:54:06.680Z,18.50
2018-07-27T23:56:35.177Z,18.20
2018-07-27T23:59:03.853Z,17.90
